createdAt,value
2018-12-20T00:00:56.534Z,13.83
2018-12-20T00:03:25.177Z,12.73
2018-12-20T00:05:52.725Z,13.20
2018-12-20T00:08:20.529Z,12.57
2018-12-20T00:10:48.166Z,13.50
2018-12-20T00:13:15.697Z,13.17
2018-12-20T00:15:43.221Z,13.33
2018-12-20T00:18:11.763Z,13.33
2018-12-20T00:20:39.265Z,12.57
2018-12-20T00:23:07.083Z,12.63
2018-12-20T00:25:34.788Z,11.70
2018-12-20T00:28:02.378Z,13.00
2018-12-20T00:30:29.917Z,12.50
2018-12-20T00:32:57.587Z,13.20
2018-12-20T00:35:25.408Z,12.50
2018-12-20T00:37:53.112Z,12.93
2018-12-20T00:40:20.872Z,12.77
2018-12-20T00:42:48.532Z,13.53
2018-12-20T00:45:16.174Z,13.87
2018-12-20T00:47:43.992Z,12.70
2018-12-20T00:50:11.765Z,14.07
2018-12-20T00:52:39.435Z,13.57
2018-12-20T00:55:07.173Z,14.10
2018-12-20T00:57:35.137Z,13.07
2018-12-20T01:00:03.353Z,12.03
2018-12-20T01:02:31.030Z,13.00
2018-12-20T01:04:58.605Z,13.33
2018-12-20T01:07:26.395Z,13.67
2018-12-20T01:09:54.165Z,12.83
2018-12-20T01:12:21.815Z,13.53
2018-12-20T01:14:49.523Z,13.30
2018-12-20T01:17:18.492Z,12.57
2018-12-20T01:19:46.226Z,13.00
2018-12-20T01:22:14.782Z,12.63
2018-12-20T01:24:42.542Z,13.10
2018-12-20T01:27:10.257Z,14.03
2018-12-20T01:29:37.999Z,13.50
2018-12-20T01:32:05.688Z,14.03
2018-12-20T01:34:33.266Z,13.47
2018-12-20T01:37:00.752Z,14.53
2018-12-20T01:39:28.715Z,13.30
2018-12-20T01:41:56.358Z,13.43
2018-12-20T01:44:23.998Z,14.43
2018-12-20T01:46:51.785Z,13.67
2018-12-20T01:49:19.629Z,12.97
2018-12-20T01:51:47.491Z,13.60
2018-12-20T01:54:15.071Z,12.97
2018-12-20T01:56:42.882Z,13.70
2018-12-20T01:59:10.558Z,13.40
2018-12-20T02:01:38.263Z,14.03
2018-12-20T02:04:05.757Z,12.97
2018-12-20T02:06:34.419Z,14.17
2018-12-20T02:09:02.086Z,15.03
2018-12-20T02:11:29.674Z,15.33
2018-12-20T02:13:57.338Z,14.23
2018-12-20T02:16:24.963Z,14.43
2018-12-20T02:18:52.571Z,14.00
2018-12-20T02:21:20.126Z,14.03
2018-12-20T02:23:47.758Z,15.33
2018-12-20T02:26:15.448Z,14.87
2018-12-20T02:28:43.149Z,14.23
2018-12-20T02:31:10.809Z,13.67
2018-12-20T02:33:38.409Z,14.10
2018-12-20T02:36:06.095Z,14.63
2018-12-20T02:38:33.602Z,14.47
2018-12-20T02:41:01.105Z,15.00
2018-12-20T02:43:28.808Z,16.07
2018-12-20T02:45:56.516Z,14.97
2018-12-20T02:48:24.201Z,15.67
2018-12-20T02:50:52.098Z,15.17
2018-12-20T02:53:19.861Z,15.30
2018-12-20T02:55:47.522Z,15.57
2018-12-20T02:58:15.776Z,15.95
2018-12-20T03:00:43.429Z,16.00
2018-12-20T03:03:10.970Z,16.37
2018-12-20T03:05:38.726Z,15.80
2018-12-20T03:08:06.513Z,15.93
2018-12-20T03:10:34.074Z,16.10
2018-12-20T03:13:01.662Z,16.63
2018-12-20T03:15:29.542Z,17.47
2018-12-20T03:17:57.127Z,16.77
2018-12-20T03:20:25.183Z,17.53
2018-12-20T03:22:52.859Z,17.20
2018-12-20T03:25:20.774Z,17.17
2018-12-20T03:27:48.596Z,17.43
2018-12-20T03:30:16.526Z,18.07
2018-12-20T03:32:44.328Z,17.60
2018-12-20T03:35:11.903Z,16.97
2018-12-20T03:37:39.551Z,17.03
2018-12-20T03:40:07.879Z,18.33
2018-12-20T03:42:35.439Z,17.97
2018-12-20T03:45:03.415Z,17.57
2018-12-20T03:47:31.324Z,18.87
2018-12-20T03:49:58.953Z,17.87
2018-12-20T03:52:26.657Z,18.50
2018-12-20T03:54:54.430Z,20.43
2018-12-20T03:57:22.098Z,20.07
2018-12-20T03:59:49.887Z,19.83
2018-12-20T04:02:17.748Z,21.37
2018-12-20T04:04:45.553Z,20.30
2018-12-20T04:07:13.472Z,21.60
2018-12-20T04:09:41.291Z,21.37
2018-12-20T04:12:09.041Z,21.47
2018-12-20T04:14:36.718Z,22.93
2018-12-20T04:17:04.365Z,21.83
2018-12-20T04:19:32.148Z,22.53
2018-12-20T04:21:59.960Z,22.03
2018-12-20T04:24:27.571Z,22.03
2018-12-20T04:26:55.065Z,20.40
2018-12-20T04:29:23.032Z,22.80
2018-12-20T04:31:50.638Z,20.90
2018-12-20T04:34:18.344Z,22.63
2018-12-20T04:36:45.964Z,22.93
2018-12-20T04:39:13.617Z,21.87
2018-12-20T04:41:41.210Z,22.43
2018-12-20T04:44:08.907Z,21.97
2018-12-20T04:46:36.484Z,22.60
2018-12-20T04:49:04.203Z,22.80
2018-12-20T04:51:31.918Z,23.63
2018-12-20T04:53:59.477Z,23.12
2018-12-20T04:56:27.257Z,22.20
2018-12-20T04:58:55.055Z,20.97
2018-12-20T05:01:22.989Z,22.10
2018-12-20T05:03:50.808Z,22.00
2018-12-20T05:06:18.529Z,22.47
2018-12-20T05:08:46.177Z,23.73
2018-12-20T05:11:13.818Z,21.37
2018-12-20T05:13:41.586Z,22.03
2018-12-20T05:16:09.385Z,23.43
2018-12-20T05:18:37.202Z,23.47
2018-12-20T05:21:04.812Z,23.43
2018-12-20T05:23:32.355Z,22.13
2018-12-20T05:26:00.142Z,22.00
2018-12-20T05:28:28.070Z,22.40
2018-12-20T05:30:55.840Z,23.30
2018-12-20T05:33:23.530Z,21.57
2018-12-20T05:35:51.191Z,22.83
2018-12-20T05:38:18.995Z,21.80
2018-12-20T05:40:46.794Z,23.10
2018-12-20T05:43:15.388Z,21.33
2018-12-20T05:45:43.124Z,21.27
2018-12-20T05:48:10.734Z,21.87
2018-12-20T05:50:38.518Z,22.50
2018-12-20T05:53:06.547Z,21.97
2018-12-20T05:55:34.318Z,23.67
2018-12-20T05:58:01.894Z,23.60
2018-12-20T06:00:29.760Z,23.80
2018-12-20T06:02:57.452Z,22.63
2018-12-20T06:05:25.141Z,24.53
2018-12-20T06:07:52.798Z,22.97
2018-12-20T06:10:20.820Z,22.43
2018-12-20T06:12:48.459Z,23.77
2018-12-20T06:15:15.990Z,25.20
2018-12-20T06:17:43.590Z,25.47
2018-12-20T06:20:11.174Z,22.87
2018-12-20T06:22:38.703Z,23.50
2018-12-20T06:25:06.207Z,26.10
2018-12-20T06:27:33.754Z,23.97
2018-12-20T06:30:01.247Z,24.17
2018-12-20T06:32:28.902Z,23.50
2018-12-20T06:34:57.289Z,25.50
2018-12-20T06:37:24.800Z,25.77
2018-12-20T06:39:52.320Z,25.20
2018-12-20T06:42:19.897Z,23.93
2018-12-20T06:44:47.443Z,23.10
2018-12-20T06:47:15.291Z,25.77
2018-12-20T06:49:42.913Z,24.40
2018-12-20T06:52:10.430Z,24.03
2018-12-20T06:54:37.943Z,24.13
2018-12-20T06:57:05.494Z,24.27
2018-12-20T06:59:33.085Z,25.47
2018-12-20T07:02:00.732Z,26.80
2018-12-20T07:04:28.286Z,25.70
2018-12-20T07:06:55.897Z,26.40
2018-12-20T07:09:23.572Z,27.03
2018-12-20T07:11:51.170Z,25.87
2018-12-20T07:14:18.889Z,25.77
2018-12-20T07:16:46.395Z,27.37
2018-12-20T07:19:13.911Z,27.63
2018-12-20T07:21:41.509Z,27.70
2018-12-20T07:24:09.083Z,27.93
2018-12-20T07:26:36.583Z,28.57
2018-12-20T07:29:04.107Z,27.77
2018-12-20T07:31:31.602Z,27.17
2018-12-20T07:33:59.147Z,27.13
2018-12-20T07:36:26.643Z,26.80
2018-12-20T07:38:54.305Z,25.87
2018-12-20T07:41:21.853Z,27.53
2018-12-20T07:43:49.429Z,27.83
2018-12-20T07:46:16.987Z,28.60
2018-12-20T07:48:44.520Z,28.57
2018-12-20T07:51:12.041Z,28.37
2018-12-20T07:53:39.557Z,27.10
2018-12-20T07:56:07.089Z,27.10
2018-12-20T07:58:34.892Z,27.80
2018-12-20T08:01:02.457Z,28.70
2018-12-20T08:03:29.959Z,28.60
2018-12-20T08:05:57.565Z,28.20
2018-12-20T08:08:25.140Z,27.60
2018-12-20T08:10:52.788Z,28.17
2018-12-20T08:13:20.291Z,27.17
2018-12-20T08:15:47.803Z,27.93
2018-12-20T08:18:15.424Z,27.60
2018-12-20T08:20:42.985Z,27.00
2018-12-20T08:23:10.559Z,27.30
2018-12-20T08:25:38.076Z,29.80
2018-12-20T08:28:06.059Z,27.73
2018-12-20T08:30:33.557Z,26.50
2018-12-20T08:33:01.113Z,25.37
2018-12-20T08:35:28.688Z,27.90
2018-12-20T08:37:56.241Z,26.67
2018-12-20T08:40:23.767Z,26.37
2018-12-20T08:42:51.303Z,27.57
2018-12-20T08:45:18.801Z,26.45
2018-12-20T08:47:46.319Z,27.83
2018-12-20T08:50:13.857Z,28.57
2018-12-20T08:52:41.396Z,29.33
2018-12-20T08:55:08.963Z,28.73
2018-12-20T08:57:37.238Z,28.70
2018-12-20T09:00:06.946Z,28.07
2018-12-20T09:02:34.457Z,28.83
2018-12-20T09:05:02.005Z,26.70
2018-12-20T09:07:29.522Z,26.77
2018-12-20T09:09:57.033Z,29.33
2018-12-20T09:12:24.533Z,26.20
2018-12-20T09:14:52.072Z,27.07
2018-12-20T09:17:19.599Z,27.70
2018-12-20T09:19:47.204Z,27.10
2018-12-20T09:22:14.783Z,25.53
2018-12-20T09:24:42.353Z,24.50
2018-12-20T09:27:10.405Z,25.50
2018-12-20T09:29:38.513Z,24.47
2018-12-20T09:32:06.805Z,26.00
2018-12-20T09:34:34.313Z,25.70
2018-12-20T09:37:01.871Z,25.73
2018-12-20T09:39:29.453Z,25.80
2018-12-20T09:41:56.968Z,26.17
2018-12-20T09:44:24.484Z,24.83
2018-12-20T09:46:53.949Z,25.13
2018-12-20T09:49:21.539Z,25.10
2018-12-20T09:51:49.774Z,25.77
2018-12-20T09:54:17.269Z,26.27
2018-12-20T09:56:44.849Z,25.97
2018-12-20T09:59:12.481Z,26.40
2018-12-20T10:01:40.013Z,26.60
2018-12-20T10:04:07.563Z,26.50
2018-12-20T10:06:35.062Z,25.03
2018-12-20T10:09:02.570Z,24.53
2018-12-20T10:11:30.175Z,24.50
2018-12-20T10:13:57.819Z,24.03
2018-12-20T10:16:25.311Z,24.67
2018-12-20T10:18:52.953Z,24.40
2018-12-20T10:21:21.937Z,25.93
2018-12-20T10:23:49.783Z,24.80
2018-12-20T10:26:17.300Z,25.97
2018-12-20T10:28:44.838Z,25.20
2018-12-20T10:31:12.394Z,22.93
2018-12-20T10:33:40.031Z,23.27
2018-12-20T10:36:07.524Z,23.80
2018-12-20T10:38:35.031Z,24.37
2018-12-20T10:41:02.574Z,23.33
2018-12-20T10:43:30.105Z,23.20
2018-12-20T10:45:57.610Z,23.23
2018-12-20T10:48:25.247Z,24.17
2018-12-20T10:50:52.803Z,24.20
2018-12-20T10:53:20.306Z,22.10
2018-12-20T10:55:47.826Z,23.17
2018-12-20T10:58:15.417Z,22.47
2018-12-20T11:00:48.633Z,22.40
2018-12-20T11:03:21.803Z,22.03
2018-12-20T11:05:55.035Z,22.57
2018-12-20T11:08:23.602Z,22.43
2018-12-20T11:10:53.207Z,21.27
2018-12-20T11:13:24.606Z,20.90
2018-12-20T11:15:52.177Z,21.70
2018-12-20T11:18:19.709Z,22.93
2018-12-20T11:20:47.213Z,21.43
2018-12-20T11:23:15.663Z,21.67
2018-12-20T11:25:43.852Z,22.13
2018-12-20T11:28:11.365Z,21.53
2018-12-20T11:30:38.923Z,21.07
2018-12-20T11:33:06.657Z,23.03
2018-12-20T11:35:34.245Z,21.60
2018-12-20T11:38:01.772Z,22.10
2018-12-20T11:40:29.345Z,22.27
2018-12-20T11:42:56.846Z,21.70
2018-12-20T11:45:24.428Z,23.20
2018-12-20T11:47:51.944Z,22.13
2018-12-20T11:50:19.469Z,22.80
2018-12-20T11:52:46.972Z,22.23
2018-12-20T11:55:15.339Z,20.73
2018-12-20T11:57:42.830Z,21.93
2018-12-20T12:00:10.438Z,22.80
2018-12-20T12:02:38.103Z,22.37
2018-12-20T12:05:05.753Z,21.33
2018-12-20T12:07:33.345Z,21.97
2018-12-20T12:10:00.865Z,21.67
2018-12-20T12:12:28.431Z,21.50
2018-12-20T12:14:55.955Z,22.23
2018-12-20T12:17:23.575Z,22.37
2018-12-20T12:19:51.203Z,22.37
2018-12-20T12:22:18.759Z,23.07
2018-12-20T12:24:46.746Z,23.80
2018-12-20T12:27:14.283Z,21.73
2018-12-20T12:29:41.806Z,23.17
2018-12-20T12:32:09.393Z,22.47
2018-12-20T12:34:37.047Z,22.53
2018-12-20T12:37:04.603Z,22.60
2018-12-20T12:39:32.710Z,21.53
2018-12-20T12:42:00.265Z,21.20
2018-12-20T12:44:27.844Z,22.73
2018-12-20T12:46:55.371Z,21.93
2018-12-20T12:49:24.095Z,22.33
2018-12-20T12:51:53.191Z,22.27
2018-12-20T12:54:21.054Z,21.63
2018-12-20T12:56:48.867Z,21.53
2018-12-20T12:59:16.406Z,23.73
2018-12-20T13:01:44.003Z,21.53
2018-12-20T13:04:11.506Z,21.27
2018-12-20T13:06:39.229Z,21.60
2018-12-20T13:09:06.916Z,22.77
2018-12-20T13:11:34.400Z,22.40
2018-12-20T13:14:02.037Z,23.10
2018-12-20T13:16:29.557Z,22.10
2018-12-20T13:18:57.170Z,22.10
2018-12-20T13:21:24.686Z,23.47
2018-12-20T13:23:52.254Z,21.50
2018-12-20T13:26:19.919Z,21.07
2018-12-20T13:28:47.498Z,22.43
2018-12-20T13:31:14.990Z,20.67
2018-12-20T13:33:42.529Z,21.17
2018-12-20T13:36:10.069Z,20.80
2018-12-20T13:38:37.633Z,23.47
2018-12-20T13:41:05.152Z,23.20
2018-12-20T13:43:32.861Z,20.70
2018-12-20T13:46:00.507Z,22.30
2018-12-20T13:48:28.053Z,22.17
2018-12-20T13:50:55.609Z,20.13
2018-12-20T13:53:23.177Z,21.60
2018-12-20T13:55:50.817Z,21.57
2018-12-20T13:58:18.349Z,23.03
2018-12-20T14:00:45.979Z,20.63
2018-12-20T14:03:13.497Z,22.97
2018-12-20T14:05:41.411Z,22.13
2018-12-20T14:08:08.985Z,22.17
2018-12-20T14:10:36.559Z,21.97
2018-12-20T14:13:04.578Z,22.93
2018-12-20T14:15:32.220Z,21.50
2018-12-20T14:17:59.773Z,21.33
2018-12-20T14:20:27.298Z,22.07
2018-12-20T14:22:54.811Z,22.27
2018-12-20T14:25:22.342Z,22.77
2018-12-20T14:27:49.984Z,22.70
2018-12-20T14:30:17.497Z,22.33
2018-12-20T14:32:45.099Z,22.20
2018-12-20T14:35:12.660Z,22.20
2018-12-20T14:37:40.214Z,22.47
2018-12-20T14:40:08.444Z,22.63
2018-12-20T14:42:37.804Z,24.00
2018-12-20T14:45:05.892Z,23.60
2018-12-20T14:47:33.513Z,22.95
2018-12-20T14:50:01.155Z,23.90
2018-12-20T14:52:28.646Z,22.57
2018-12-20T14:54:56.197Z,23.00
2018-12-20T14:57:23.745Z,24.07
2018-12-20T14:59:51.350Z,24.20
2018-12-20T15:02:18.953Z,24.40
2018-12-20T15:04:46.566Z,21.80
2018-12-20T15:07:14.112Z,23.03
2018-12-20T15:09:41.811Z,23.33
2018-12-20T15:12:09.363Z,23.80
2018-12-20T15:14:36.944Z,23.67
2018-12-20T15:17:04.506Z,25.20
2018-12-20T15:19:32.023Z,23.17
2018-12-20T15:21:59.561Z,25.03
2018-12-20T15:24:27.079Z,25.00
2018-12-20T15:26:55.754Z,22.60
2018-12-20T15:29:23.331Z,24.33
2018-12-20T15:31:53.526Z,25.47
2018-12-20T15:34:20.664Z,23.80
2018-12-20T15:36:48.214Z,24.03
2018-12-20T15:39:15.756Z,23.93
2018-12-20T15:41:43.404Z,23.70
2018-12-20T15:44:10.970Z,24.60
2018-12-20T15:46:38.539Z,24.90
2018-12-20T15:49:06.058Z,24.93
2018-12-20T15:51:34.048Z,24.70
2018-12-20T15:54:01.573Z,24.70
2018-12-20T15:56:29.150Z,24.20
2018-12-20T15:58:56.798Z,23.53
2018-12-20T16:01:24.362Z,25.07
2018-12-20T16:03:52.031Z,23.43
2018-12-20T16:06:19.598Z,24.73
2018-12-20T16:08:47.175Z,24.77
2018-12-20T16:11:14.833Z,21.97
2018-12-20T16:13:42.368Z,23.33
2018-12-20T16:16:09.908Z,23.10
2018-12-20T16:18:37.465Z,25.43
2018-12-20T16:21:05.555Z,24.77
2018-12-20T16:23:33.128Z,25.03
2018-12-20T16:26:00.729Z,25.43
2018-12-20T16:28:28.352Z,22.30
2018-12-20T16:30:55.871Z,23.90
2018-12-20T16:33:23.416Z,23.13
2018-12-20T16:35:50.926Z,23.17
2018-12-20T16:38:18.438Z,21.60
2018-12-20T16:40:46.010Z,24.00
2018-12-20T16:43:13.535Z,24.37
2018-12-20T16:45:41.184Z,23.37
2018-12-20T16:48:08.964Z,23.13
2018-12-20T16:50:36.507Z,23.23
2018-12-20T16:53:04.126Z,23.40
2018-12-20T16:55:31.708Z,23.77
2018-12-20T16:57:59.269Z,21.33
2018-12-20T17:00:26.808Z,21.20
2018-12-20T17:02:54.337Z,21.50
2018-12-20T17:05:21.914Z,22.83
2018-12-20T17:07:49.471Z,21.23
2018-12-20T17:10:17.101Z,20.93
2018-12-20T17:12:45.249Z,21.20
2018-12-20T17:15:12.958Z,20.90
2018-12-20T17:17:40.537Z,21.43
2018-12-20T17:20:08.177Z,19.93
2018-12-20T17:22:35.743Z,20.48
2018-12-20T17:25:05.031Z,19.20
2018-12-20T17:27:32.589Z,19.93
2018-12-20T17:30:00.595Z,20.37
2018-12-20T17:32:28.230Z,19.43
2018-12-20T17:34:55.806Z,18.63
2018-12-20T17:37:23.425Z,19.47
2018-12-20T17:39:50.969Z,19.20
2018-12-20T17:42:18.517Z,19.20
2018-12-20T17:44:46.453Z,20.13
2018-12-20T17:47:14.060Z,19.60
2018-12-20T17:49:42.045Z,18.33
2018-12-20T17:52:09.621Z,18.40
2018-12-20T17:54:37.279Z,19.57
2018-12-20T17:57:04.874Z,20.13
2018-12-20T17:59:32.403Z,18.73
2018-12-20T18:01:59.985Z,18.40
2018-12-20T18:04:28.691Z,19.87
2018-12-20T18:06:56.260Z,18.40
2018-12-20T18:09:23.873Z,20.00
2018-12-20T18:11:51.425Z,18.87
2018-12-20T18:14:18.959Z,19.93
2018-12-20T18:16:46.520Z,20.90
2018-12-20T18:19:14.087Z,20.33
2018-12-20T18:24:15.583Z,19.80
2018-12-20T18:26:43.152Z,19.83
2018-12-20T18:29:11.438Z,19.27
2018-12-20T18:31:39.009Z,20.00
2018-12-20T18:34:06.552Z,18.77
2018-12-20T18:36:34.890Z,18.97
2018-12-20T18:39:02.435Z,17.87
2018-12-20T18:41:29.960Z,16.57
2018-12-20T18:43:57.507Z,15.47
2018-12-20T18:46:26.237Z,15.40
2018-12-20T18:48:54.118Z,14.97
2018-12-20T18:51:21.643Z,20.40
2018-12-20T18:53:49.255Z,17.90
2018-12-20T18:56:18.288Z,16.40
2018-12-20T18:58:45.836Z,17.20
2018-12-20T19:01:13.502Z,20.20
2018-12-20T19:03:41.038Z,22.03
2018-12-20T19:06:09.868Z,23.30
2018-12-20T19:08:37.581Z,22.20
2018-12-20T19:11:05.315Z,18.77
2018-12-20T19:13:33.209Z,18.07
2018-12-20T19:16:00.897Z,18.73
2018-12-20T19:18:28.423Z,19.50
2018-12-20T19:20:56.890Z,18.10
2018-12-20T19:23:24.532Z,17.17
2018-12-20T19:25:52.216Z,19.33
2018-12-20T19:28:19.767Z,21.27
2018-12-20T19:30:47.618Z,21.90
2018-12-20T19:33:15.389Z,20.70
2018-12-20T19:35:43.674Z,19.10
2018-12-20T19:38:20.239Z,19.73
2018-12-20T19:40:41.583Z,19.47
2018-12-20T19:43:10.089Z,20.10
2018-12-20T19:45:45.966Z,21.83
2018-12-20T19:48:08.642Z,24.33
2018-12-20T19:50:36.941Z,20.15
2018-12-20T19:53:04.752Z,20.63
2018-12-20T19:55:32.419Z,26.83
2018-12-20T19:58:00.016Z,25.30
2018-12-20T20:00:27.584Z,25.60
2018-12-20T20:02:55.542Z,18.83
2018-12-20T20:05:23.119Z,19.43
2018-12-20T20:07:50.761Z,18.73
2018-12-20T20:10:18.516Z,17.67
2018-12-20T20:12:46.663Z,17.43
2018-12-20T20:15:16.689Z,18.50
2018-12-20T20:17:47.846Z,16.83
2018-12-20T20:20:19.120Z,17.27
2018-12-20T20:22:46.657Z,16.00
2018-12-20T20:25:14.243Z,16.37
2018-12-20T20:27:41.808Z,15.87
2018-12-20T20:30:10.760Z,16.47
2018-12-20T20:32:41.636Z,17.15
2018-12-20T20:35:11.205Z,15.20
2018-12-20T20:37:38.968Z,16.53
2018-12-20T20:40:08.274Z,16.57
2018-12-20T20:42:36.422Z,17.50
2018-12-20T20:45:06.404Z,17.13
2018-12-20T20:47:35.456Z,16.50
2018-12-20T20:50:04.273Z,16.10
2018-12-20T20:52:31.848Z,15.70
2018-12-20T20:54:59.486Z,14.73
2018-12-20T20:57:27.292Z,15.93
2018-12-20T20:59:54.930Z,15.13
2018-12-20T21:02:25.706Z,15.57
2018-12-20T21:04:53.374Z,14.90
2018-12-20T21:07:22.420Z,15.40
2018-12-20T21:09:49.937Z,14.07
2018-12-20T21:12:22.735Z,15.10
2018-12-20T21:14:52.446Z,14.00
2018-12-20T21:17:18.856Z,15.53
2018-12-20T21:19:47.368Z,14.80
2018-12-20T21:22:15.228Z,14.70
2018-12-20T21:24:42.816Z,15.03
2018-12-20T21:27:11.952Z,15.13
2018-12-20T21:29:40.003Z,14.90
2018-12-20T21:32:07.620Z,16.03
2018-12-20T21:34:36.094Z,14.77
2018-12-20T21:37:04.317Z,15.97
2018-12-20T21:39:32.532Z,14.83
2018-12-20T21:42:00.172Z,16.93
2018-12-20T21:44:28.528Z,16.90
2018-12-20T21:46:56.077Z,16.33
2018-12-20T21:49:23.658Z,15.77
2018-12-20T21:51:52.154Z,15.17
2018-12-20T21:54:19.716Z,16.37
2018-12-20T21:56:47.262Z,18.73
2018-12-20T21:59:14.807Z,17.93
2018-12-20T22:01:42.534Z,18.20
2018-12-20T22:04:10.135Z,18.23
2018-12-20T22:06:38.388Z,17.27
2018-12-20T22:09:06.088Z,18.47
2018-12-20T22:11:34.297Z,17.53
2018-12-20T22:14:02.419Z,19.33
2018-12-20T22:16:30.637Z,17.77
2018-12-20T22:18:59.904Z,19.10
2018-12-20T22:21:28.325Z,19.53
2018-12-20T22:23:58.140Z,19.67
2018-12-20T22:26:25.682Z,21.00
2018-12-20T22:28:53.265Z,20.90
2018-12-20T22:31:21.301Z,19.70
2018-12-20T22:33:48.922Z,21.40
2018-12-20T22:36:16.522Z,20.93
2018-12-20T22:38:45.698Z,20.82
2018-12-20T22:41:14.259Z,22.27
2018-12-20T22:43:41.878Z,20.80
2018-12-20T22:46:11.239Z,20.70
2018-12-20T22:48:39.734Z,21.53
2018-12-20T22:51:09.100Z,19.13
2018-12-20T22:53:36.715Z,21.70
2018-12-20T22:56:04.387Z,21.83
2018-12-20T22:58:31.935Z,21.57
2018-12-20T23:01:00.733Z,22.67
2018-12-20T23:03:29.561Z,22.17
2018-12-20T23:05:57.700Z,21.97
2018-12-20T23:08:25.249Z,22.57
2018-12-20T23:10:55.888Z,22.67
2018-12-20T23:13:23.443Z,23.47
2018-12-20T23:15:51.671Z,23.00
2018-12-20T23:18:20.309Z,23.23
2018-12-20T23:20:47.905Z,24.83
2018-12-20T23:23:17.685Z,23.08
2018-12-20T23:25:46.212Z,23.83
2018-12-20T23:28:13.733Z,23.23
2018-12-20T23:30:41.351Z,22.43
2018-12-20T23:33:08.991Z,23.03
2018-12-20T23:35:36.532Z,23.17
2018-12-20T23:38:04.596Z,23.23
2018-12-20T23:40:32.414Z,24.70
2018-12-20T23:43:00.026Z,24.13
2018-12-20T23:45:27.543Z,24.03
2018-12-20T23:47:55.098Z,24.87
2018-12-20T23:50:22.793Z,25.57
2018-12-20T23:52:50.464Z,24.20
2018-12-20T23:55:18.005Z,26.07
2018-12-20T23:57:45.532Z,24.37
